sensor_id;sensor_type;location;lat;lon;timestamp;P1;durP1;ratioP1;P2;durP2;ratioP2
51148;SDS011;37210;50.058;8.688;2023-02-15T00:00:10;27.65;;;21.88;;
51148;SDS011;37210;50.058;8.688;2023-02-15T00:02:38;27.48;;;20.58;;
51148;SDS011;37210;50.058;8.688;2023-02-15T00:05:06;27.58;;;21.25;;
51148;SDS011;37210;50.058;8.688;2023-02-15T00:07:34;27.83;;;21.20;;
51148;SDS011;37210;50.058;8.688;2023-02-15T00:10:01;27.77;;;21.73;;
51148;SDS011;37210;50.058;8.688;2023-02-15T00:12:30;28.00;;;21.13;;
51148;SDS011;37210;50.058;8.688;2023-02-15T00:14:59;28.98;;;22.33;;
51148;SDS011;37210;50.058;8.688;2023-02-15T00:17:27;28.85;;;21.88;;
51148;SDS011;37210;50.058;8.688;2023-02-15T00:19:55;26.02;;;21.85;;
51148;SDS011;37210;50.058;8.688;2023-02-15T00:22:22;38.05;;;27.73;;
51148;SDS011;37210;50.058;8.688;2023-02-15T00:24:50;31.42;;;23.23;;
51148;SDS011;37210;50.058;8.688;2023-02-15T00:27:17;30.80;;;22.65;;
51148;SDS011;37210;50.058;8.688;2023-02-15T00:29:46;30.92;;;23.52;;
51148;SDS011;37210;50.058;8.688;2023-02-15T00:32:15;31.98;;;23.35;;
51148;SDS011;37210;50.058;8.688;2023-02-15T00:34:42;30.75;;;23.45;;
51148;SDS011;37210;50.058;8.688;2023-02-15T00:37:10;30.50;;;23.05;;
51148;SDS011;37210;50.058;8.688;2023-02-15T00:39:37;31.30;;;23.42;;
51148;SDS011;37210;50.058;8.688;2023-02-15T00:42:05;31.67;;;23.60;;
51148;SDS011;37210;50.058;8.688;2023-02-15T00:44:33;28.90;;;21.38;;
51148;SDS011;37210;50.058;8.688;2023-02-15T00:47:00;29.05;;;22.45;;
51148;SDS011;37210;50.058;8.688;2023-02-15T00:49:29;31.95;;;23.95;;
51148;SDS011;37210;50.058;8.688;2023-02-15T00:51:57;30.50;;;23.30;;
51148;SDS011;37210;50.058;8.688;2023-02-15T00:54:25;28.83;;;24.08;;
51148;SDS011;37210;50.058;8.688;2023-02-15T00:56:52;29.25;;;23.30;;
51148;SDS011;37210;50.058;8.688;2023-02-15T00:59:20;29.67;;;22.92;;
51148;SDS011;37210;50.058;8.688;2023-02-15T01:01:48;29.30;;;23.20;;
51148;SDS011;37210;50.058;8.688;2023-02-15T01:04:18;31.23;;;23.48;;
51148;SDS011;37210;50.058;8.688;2023-02-15T01:06:47;30.33;;;23.58;;
51148;SDS011;37210;50.058;8.688;2023-02-15T01:09:14;31.33;;;23.40;;
51148;SDS011;37210;50.058;8.688;2023-02-15T01:11:42;29.30;;;23.80;;
51148;SDS011;37210;50.058;8.688;2023-02-15T01:14:10;34.03;;;22.48;;
51148;SDS011;37210;50.058;8.688;2023-02-15T01:16:39;28.50;;;21.98;;
51148;SDS011;37210;50.058;8.688;2023-02-15T01:19:06;32.03;;;23.88;;
51148;SDS011;37210;50.058;8.688;2023-02-15T01:21:33;30.95;;;23.05;;
51148;SDS011;37210;50.058;8.688;2023-02-15T01:24:03;32.03;;;24.15;;
51148;SDS011;37210;50.058;8.688;2023-02-15T01:26:31;30.77;;;22.83;;
51148;SDS011;37210;50.058;8.688;2023-02-15T01:28:59;32.60;;;24.00;;
51148;SDS011;37210;50.058;8.688;2023-02-15T01:31:26;31.50;;;24.10;;
51148;SDS011;37210;50.058;8.688;2023-02-15T01:33:54;31.00;;;24.27;;
51148;SDS011;37210;50.058;8.688;2023-02-15T01:36:22;33.70;;;24.30;;
51148;SDS011;37210;50.058;8.688;2023-02-15T01:38:51;32.58;;;23.88;;
51148;SDS011;37210;50.058;8.688;2023-02-15T01:41:20;33.45;;;25.70;;
51148;SDS011;37210;50.058;8.688;2023-02-15T01:43:49;32.67;;;25.13;;
51148;SDS011;37210;50.058;8.688;2023-02-15T01:46:21;32.30;;;25.40;;
51148;SDS011;37210;50.058;8.688;2023-02-15T01:48:56;33.47;;;24.83;;
51148;SDS011;37210;50.058;8.688;2023-02-15T01:51:31;32.85;;;24.52;;
51148;SDS011;37210;50.058;8.688;2023-02-15T01:54:05;32.40;;;26.00;;
51148;SDS011;37210;50.058;8.688;2023-02-15T01:56:45;31.52;;;24.27;;
51148;SDS011;37210;50.058;8.688;2023-02-15T01:59:16;31.77;;;23.27;;
51148;SDS011;37210;50.058;8.688;2023-02-15T02:01:50;31.15;;;24.23;;
51148;SDS011;37210;50.058;8.688;2023-02-15T02:04:23;34.67;;;25.55;;
51148;SDS011;37210;50.058;8.688;2023-02-15T02:07:00;34.75;;;26.20;;
51148;SDS011;37210;50.058;8.688;2023-02-15T02:09:31;33.45;;;25.95;;
51148;SDS011;37210;50.058;8.688;2023-02-15T02:12:00;33.58;;;25.70;;
51148;SDS011;37210;50.058;8.688;2023-02-15T02:14:28;34.88;;;25.35;;
51148;SDS011;37210;50.058;8.688;2023-02-15T02:16:58;33.17;;;25.65;;
51148;SDS011;37210;50.058;8.688;2023-02-15T02:19:46;34.30;;;24.95;;
51148;SDS011;37210;50.058;8.688;2023-02-15T02:23:00;31.27;;;24.77;;
51148;SDS011;37210;50.058;8.688;2023-02-15T02:29:58;31.98;;;24.15;;
51148;SDS011;37210;50.058;8.688;2023-02-15T02:36:08;28.92;;;22.88;;
51148;SDS011;37210;50.058;8.688;2023-02-15T02:38:50;32.22;;;24.23;;
51148;SDS011;37210;50.058;8.688;2023-02-15T02:41:37;32.92;;;23.70;;
51148;SDS011;37210;50.058;8.688;2023-02-15T02:44:21;34.78;;;24.02;;
51148;SDS011;37210;50.058;8.688;2023-02-15T02:46:54;33.53;;;25.02;;
51148;SDS011;37210;50.058;8.688;2023-02-15T02:49:33;31.75;;;23.02;;
51148;SDS011;37210;50.058;8.688;2023-02-15T02:52:03;32.42;;;23.30;;
51148;SDS011;37210;50.058;8.688;2023-02-15T02:57:55;33.72;;;25.10;;
51148;SDS011;37210;50.058;8.688;2023-02-15T03:00:32;35.75;;;26.02;;
51148;SDS011;37210;50.058;8.688;2023-02-15T03:03:05;35.95;;;26.15;;
51148;SDS011;37210;50.058;8.688;2023-02-15T03:05:43;32.65;;;24.70;;
51148;SDS011;37210;50.058;8.688;2023-02-15T03:10:48;32.28;;;24.05;;
51148;SDS011;37210;50.058;8.688;2023-02-15T03:13:22;32.65;;;24.63;;
51148;SDS011;37210;50.058;8.688;2023-02-15T03:15:51;32.83;;;25.55;;
51148;SDS011;37210;50.058;8.688;2023-02-15T03:18:38;32.38;;;23.65;;
51148;SDS011;37210;50.058;8.688;2023-02-15T03:21:11;34.95;;;25.33;;
51148;SDS011;37210;50.058;8.688;2023-02-15T03:23:49;36.25;;;25.05;;
51148;SDS011;37210;50.058;8.688;2023-02-15T03:26:26;32.70;;;25.00;;
51148;SDS011;37210;50.058;8.688;2023-02-15T03:28:57;32.35;;;23.50;;
51148;SDS011;37210;50.058;8.688;2023-02-15T03:31:30;35.00;;;25.00;;
51148;SDS011;37210;50.058;8.688;2023-02-15T03:34:04;32.80;;;26.67;;
51148;SDS011;37210;50.058;8.688;2023-02-15T03:36:41;32.38;;;24.23;;
51148;SDS011;37210;50.058;8.688;2023-02-15T03:39:17;34.80;;;25.60;;
51148;SDS011;37210;50.058;8.688;2023-02-15T03:41:52;37.20;;;26.10;;
51148;SDS011;37210;50.058;8.688;2023-02-15T03:44:28;38.15;;;26.23;;
51148;SDS011;37210;50.058;8.688;2023-02-15T03:47:00;33.72;;;25.50;;
51148;SDS011;37210;50.058;8.688;2023-02-15T03:49:37;37.47;;;25.92;;
51148;SDS011;37210;50.058;8.688;2023-02-15T03:52:12;34.13;;;25.00;;
51148;SDS011;37210;50.058;8.688;2023-02-15T03:54:43;36.20;;;26.08;;
51148;SDS011;37210;50.058;8.688;2023-02-15T03:57:14;36.13;;;26.15;;
51148;SDS011;37210;50.058;8.688;2023-02-15T04:00:15;35.08;;;26.48;;
51148;SDS011;37210;50.058;8.688;2023-02-15T04:03:09;35.40;;;25.38;;
51148;SDS011;37210;50.058;8.688;2023-02-15T04:05:49;38.15;;;27.25;;
51148;SDS011;37210;50.058;8.688;2023-02-15T04:08:18;36.35;;;25.95;;
51148;SDS011;37210;50.058;8.688;2023-02-15T04:10:46;38.83;;;28.25;;
51148;SDS011;37210;50.058;8.688;2023-02-15T04:13:18;39.50;;;26.13;;
51148;SDS011;37210;50.058;8.688;2023-02-15T04:15:46;34.50;;;23.85;;
51148;SDS011;37210;50.058;8.688;2023-02-15T04:18:31;33.20;;;23.88;;
51148;SDS011;37210;50.058;8.688;2023-02-15T04:21:19;34.83;;;25.27;;
51148;SDS011;37210;50.058;8.688;2023-02-15T04:24:08;36.22;;;25.63;;
51148;SDS011;37210;50.058;8.688;2023-02-15T04:29:23;37.63;;;27.05;;
51148;SDS011;37210;50.058;8.688;2023-02-15T04:31:52;36.20;;;25.75;;
51148;SDS011;37210;50.058;8.688;2023-02-15T04:34:23;36.83;;;27.00;;
51148;SDS011;37210;50.058;8.688;2023-02-15T04:36:51;37.25;;;26.95;;
51148;SDS011;37210;50.058;8.688;2023-02-15T04:39:20;37.78;;;27.15;;
51148;SDS011;37210;50.058;8.688;2023-02-15T04:41:48;34.05;;;26.15;;
51148;SDS011;37210;50.058;8.688;2023-02-15T04:44:15;36.53;;;27.67;;
51148;SDS011;37210;50.058;8.688;2023-02-15T04:46:43;38.03;;;26.92;;
51148;SDS011;37210;50.058;8.688;2023-02-15T04:49:10;37.17;;;27.23;;
51148;SDS011;37210;50.058;8.688;2023-02-15T04:51:38;34.67;;;25.65;;
51148;SDS011;37210;50.058;8.688;2023-02-15T04:54:06;33.65;;;24.17;;
51148;SDS011;37210;50.058;8.688;2023-02-15T04:56:35;32.53;;;25.38;;
51148;SDS011;37210;50.058;8.688;2023-02-15T04:59:04;31.25;;;24.40;;
51148;SDS011;37210;50.058;8.688;2023-02-15T05:01:32;31.30;;;23.42;;
51148;SDS011;37210;50.058;8.688;2023-02-15T05:04:00;32.92;;;24.65;;
51148;SDS011;37210;50.058;8.688;2023-02-15T05:06:28;33.58;;;24.30;;
51148;SDS011;37210;50.058;8.688;2023-02-15T05:08:56;33.63;;;25.45;;
51148;SDS011;37210;50.058;8.688;2023-02-15T05:11:24;31.80;;;24.80;;
51148;SDS011;37210;50.058;8.688;2023-02-15T05:13:53;36.47;;;26.83;;
51148;SDS011;37210;50.058;8.688;2023-02-15T05:16:21;32.10;;;23.48;;
51148;SDS011;37210;50.058;8.688;2023-02-15T05:18:49;33.58;;;24.65;;
51148;SDS011;37210;50.058;8.688;2023-02-15T05:21:16;31.85;;;24.25;;
51148;SDS011;37210;50.058;8.688;2023-02-15T05:23:44;32.20;;;22.80;;
51148;SDS011;37210;50.058;8.688;2023-02-15T05:26:12;31.88;;;22.75;;
51148;SDS011;37210;50.058;8.688;2023-02-15T05:29:04;30.60;;;22.15;;
51148;SDS011;37210;50.058;8.688;2023-02-15T05:31:32;30.48;;;22.98;;
51148;SDS011;37210;50.058;8.688;2023-02-15T05:34:00;32.58;;;23.30;;
51148;SDS011;37210;50.058;8.688;2023-02-15T05:36:28;30.52;;;22.55;;
51148;SDS011;37210;50.058;8.688;2023-02-15T05:38:56;31.73;;;23.40;;
51148;SDS011;37210;50.058;8.688;2023-02-15T05:41:23;28.75;;;22.88;;
51148;SDS011;37210;50.058;8.688;2023-02-15T05:43:51;36.50;;;24.15;;
51148;SDS011;37210;50.058;8.688;2023-02-15T05:46:22;32.13;;;23.17;;
51148;SDS011;37210;50.058;8.688;2023-02-15T05:48:50;30.50;;;22.83;;
51148;SDS011;37210;50.058;8.688;2023-02-15T05:51:17;31.25;;;23.17;;
51148;SDS011;37210;50.058;8.688;2023-02-15T05:53:45;27.70;;;22.67;;
51148;SDS011;37210;50.058;8.688;2023-02-15T05:56:12;29.38;;;21.88;;
51148;SDS011;37210;50.058;8.688;2023-02-15T05:58:40;30.65;;;22.27;;
51148;SDS011;37210;50.058;8.688;2023-02-15T06:01:09;31.83;;;22.83;;
51148;SDS011;37210;50.058;8.688;2023-02-15T06:03:39;30.67;;;22.27;;
51148;SDS011;37210;50.058;8.688;2023-02-15T06:06:07;30.52;;;23.13;;
51148;SDS011;37210;50.058;8.688;2023-02-15T06:08:36;28.20;;;23.30;;
51148;SDS011;37210;50.058;8.688;2023-02-15T06:11:05;28.63;;;23.25;;
51148;SDS011;37210;50.058;8.688;2023-02-15T06:13:34;27.83;;;22.58;;
51148;SDS011;37210;50.058;8.688;2023-02-15T06:16:02;32.97;;;22.17;;
51148;SDS011;37210;50.058;8.688;2023-02-15T06:18:30;31.88;;;23.20;;
51148;SDS011;37210;50.058;8.688;2023-02-15T06:21:00;33.63;;;23.83;;
51148;SDS011;37210;50.058;8.688;2023-02-15T06:23:29;34.35;;;23.83;;
51148;SDS011;37210;50.058;8.688;2023-02-15T06:25:56;34.90;;;23.80;;
51148;SDS011;37210;50.058;8.688;2023-02-15T06:28:24;31.63;;;22.58;;
51148;SDS011;37210;50.058;8.688;2023-02-15T06:30:52;28.55;;;23.38;;
51148;SDS011;37210;50.058;8.688;2023-02-15T06:33:19;32.80;;;23.30;;
51148;SDS011;37210;50.058;8.688;2023-02-15T06:35:47;26.92;;;22.00;;
51148;SDS011;37210;50.058;8.688;2023-02-15T06:38:16;32.60;;;24.20;;
51148;SDS011;37210;50.058;8.688;2023-02-15T06:40:44;30.00;;;22.85;;
51148;SDS011;37210;50.058;8.688;2023-02-15T06:43:11;31.55;;;23.55;;
51148;SDS011;37210;50.058;8.688;2023-02-15T06:45:39;33.63;;;24.33;;
51148;SDS011;37210;50.058;8.688;2023-02-15T06:48:08;30.20;;;23.42;;
51148;SDS011;37210;50.058;8.688;2023-02-15T06:50:37;31.20;;;23.92;;
51148;SDS011;37210;50.058;8.688;2023-02-15T06:53:04;29.77;;;22.60;;
51148;SDS011;37210;50.058;8.688;2023-02-15T06:55:33;28.13;;;21.85;;
51148;SDS011;37210;50.058;8.688;2023-02-15T06:58:01;31.77;;;22.35;;
51148;SDS011;37210;50.058;8.688;2023-02-15T07:00:28;28.40;;;21.75;;
51148;SDS011;37210;50.058;8.688;2023-02-15T07:02:56;29.95;;;22.90;;
51148;SDS011;37210;50.058;8.688;2023-02-15T07:05:26;30.25;;;21.02;;
51148;SDS011;37210;50.058;8.688;2023-02-15T07:07:56;26.98;;;20.92;;
51148;SDS011;37210;50.058;8.688;2023-02-15T07:10:24;26.52;;;20.80;;
51148;SDS011;37210;50.058;8.688;2023-02-15T07:12:53;24.77;;;20.33;;
51148;SDS011;37210;50.058;8.688;2023-02-15T07:15:20;23.05;;;18.33;;
51148;SDS011;37210;50.058;8.688;2023-02-15T07:17:48;26.85;;;20.00;;
51148;SDS011;37210;50.058;8.688;2023-02-15T07:20:19;22.42;;;18.67;;
51148;SDS011;37210;50.058;8.688;2023-02-15T07:22:49;23.63;;;18.23;;
51148;SDS011;37210;50.058;8.688;2023-02-15T07:25:17;21.75;;;16.33;;
51148;SDS011;37210;50.058;8.688;2023-02-15T07:27:45;21.75;;;17.50;;
51148;SDS011;37210;50.058;8.688;2023-02-15T07:30:15;20.83;;;15.82;;
51148;SDS011;37210;50.058;8.688;2023-02-15T07:32:44;21.50;;;16.73;;
51148;SDS011;37210;50.058;8.688;2023-02-15T07:35:30;18.77;;;15.90;;
51148;SDS011;37210;50.058;8.688;2023-02-15T07:38:00;18.85;;;15.38;;
51148;SDS011;37210;50.058;8.688;2023-02-15T07:40:31;16.60;;;14.85;;
51148;SDS011;37210;50.058;8.688;2023-02-15T07:42:58;19.38;;;16.30;;
51148;SDS011;37210;50.058;8.688;2023-02-15T07:45:27;20.10;;;15.80;;
51148;SDS011;37210;50.058;8.688;2023-02-15T07:47:55;20.27;;;15.00;;
51148;SDS011;37210;50.058;8.688;2023-02-15T07:50:22;19.30;;;15.30;;
51148;SDS011;37210;50.058;8.688;2023-02-15T07:52:50;17.27;;;14.45;;
51148;SDS011;37210;50.058;8.688;2023-02-15T07:55:17;17.50;;;15.20;;
51148;SDS011;37210;50.058;8.688;2023-02-15T07:57:46;17.05;;;14.82;;
51148;SDS011;37210;50.058;8.688;2023-02-15T08:00:16;16.35;;;14.40;;
51148;SDS011;37210;50.058;8.688;2023-02-15T08:02:50;16.30;;;13.82;;
51148;SDS011;37210;50.058;8.688;2023-02-15T08:05:34;16.48;;;14.13;;
51148;SDS011;37210;50.058;8.688;2023-02-15T08:08:03;15.63;;;13.48;;
51148;SDS011;37210;50.058;8.688;2023-02-15T08:10:31;16.30;;;14.05;;
51148;SDS011;37210;50.058;8.688;2023-02-15T08:15:47;13.90;;;12.35;;
51148;SDS011;37210;50.058;8.688;2023-02-15T08:18:17;15.65;;;13.05;;
51148;SDS011;37210;50.058;8.688;2023-02-15T08:20:48;15.18;;;12.85;;
51148;SDS011;37210;50.058;8.688;2023-02-15T08:23:17;15.35;;;13.13;;
51148;SDS011;37210;50.058;8.688;2023-02-15T08:25:53;14.38;;;12.77;;
51148;SDS011;37210;50.058;8.688;2023-02-15T08:28:21;13.55;;;12.15;;
51148;SDS011;37210;50.058;8.688;2023-02-15T08:30:48;14.05;;;12.55;;
51148;SDS011;37210;50.058;8.688;2023-02-15T08:33:17;13.85;;;12.30;;
51148;SDS011;37210;50.058;8.688;2023-02-15T08:35:44;14.18;;;11.95;;
51148;SDS011;37210;50.058;8.688;2023-02-15T08:38:12;12.38;;;11.07;;
51148;SDS011;37210;50.058;8.688;2023-02-15T08:40:41;14.32;;;11.55;;
51148;SDS011;37210;50.058;8.688;2023-02-15T08:43:09;12.18;;;10.93;;
51148;SDS011;37210;50.058;8.688;2023-02-15T08:45:36;13.27;;;11.80;;
51148;SDS011;37210;50.058;8.688;2023-02-15T08:48:04;15.45;;;13.02;;
51148;SDS011;37210;50.058;8.688;2023-02-15T08:50:33;14.35;;;12.68;;
51148;SDS011;37210;50.058;8.688;2023-02-15T08:53:00;14.55;;;12.25;;
51148;SDS011;37210;50.058;8.688;2023-02-15T08:55:28;13.88;;;12.38;;
51148;SDS011;37210;50.058;8.688;2023-02-15T08:57:56;14.35;;;11.77;;
51148;SDS011;37210;50.058;8.688;2023-02-15T09:00:24;12.93;;;11.55;;
51148;SDS011;37210;50.058;8.688;2023-02-15T09:02:51;15.02;;;11.93;;
51148;SDS011;37210;50.058;8.688;2023-02-15T09:05:19;13.60;;;12.20;;
51148;SDS011;37210;50.058;8.688;2023-02-15T09:07:48;13.57;;;12.18;;
51148;SDS011;37210;50.058;8.688;2023-02-15T09:10:16;16.05;;;12.10;;
51148;SDS011;37210;50.058;8.688;2023-02-15T09:12:44;15.73;;;13.80;;
51148;SDS011;37210;50.058;8.688;2023-02-15T09:15:11;13.65;;;12.23;;
51148;SDS011;37210;50.058;8.688;2023-02-15T09:17:39;15.13;;;13.35;;
51148;SDS011;37210;50.058;8.688;2023-02-15T09:20:07;14.73;;;13.23;;
51148;SDS011;37210;50.058;8.688;2023-02-15T09:22:36;14.13;;;12.30;;
51148;SDS011;37210;50.058;8.688;2023-02-15T09:25:06;15.75;;;12.93;;
51148;SDS011;37210;50.058;8.688;2023-02-15T09:27:34;13.25;;;11.82;;
51148;SDS011;37210;50.058;8.688;2023-02-15T09:30:02;16.27;;;13.23;;
51148;SDS011;37210;50.058;8.688;2023-02-15T09:32:30;16.52;;;13.57;;
51148;SDS011;37210;50.058;8.688;2023-02-15T09:34:57;15.52;;;13.93;;
51148;SDS011;37210;50.058;8.688;2023-02-15T09:37:24;13.85;;;12.35;;
51148;SDS011;37210;50.058;8.688;2023-02-15T09:39:52;15.88;;;13.32;;
51148;SDS011;37210;50.058;8.688;2023-02-15T09:42:31;19.75;;;12.77;;
51148;SDS011;37210;50.058;8.688;2023-02-15T09:45:23;14.13;;;12.70;;
51148;SDS011;37210;50.058;8.688;2023-02-15T09:48:19;14.90;;;13.32;;
51148;SDS011;37210;50.058;8.688;2023-02-15T09:54:22;16.45;;;13.75;;
51148;SDS011;37210;50.058;8.688;2023-02-15T09:57:13;17.10;;;14.70;;
51148;SDS011;37210;50.058;8.688;2023-02-15T09:59:57;17.85;;;14.65;;
51148;SDS011;37210;50.058;8.688;2023-02-15T10:02:44;18.88;;;14.40;;
51148;SDS011;37210;50.058;8.688;2023-02-15T10:05:40;17.50;;;15.05;;
51148;SDS011;37210;50.058;8.688;2023-02-15T10:08:32;18.38;;;14.30;;
51148;SDS011;37210;50.058;8.688;2023-02-15T10:11:22;15.85;;;14.15;;
51148;SDS011;37210;50.058;8.688;2023-02-15T10:14:12;18.05;;;14.75;;
51148;SDS011;37210;50.058;8.688;2023-02-15T10:17:07;16.52;;;14.18;;
51148;SDS011;37210;50.058;8.688;2023-02-15T10:19:51;18.10;;;14.32;;
51148;SDS011;37210;50.058;8.688;2023-02-15T10:22:41;17.85;;;15.25;;
51148;SDS011;37210;50.058;8.688;2023-02-15T10:25:31;19.60;;;15.32;;
51148;SDS011;37210;50.058;8.688;2023-02-15T10:28:09;19.00;;;15.70;;
51148;SDS011;37210;50.058;8.688;2023-02-15T10:30:46;17.00;;;15.13;;
51148;SDS011;37210;50.058;8.688;2023-02-15T10:33:22;16.80;;;14.52;;
51148;SDS011;37210;50.058;8.688;2023-02-15T10:36:07;17.98;;;14.55;;
51148;SDS011;37210;50.058;8.688;2023-02-15T10:38:49;20.25;;;15.88;;
51148;SDS011;37210;50.058;8.688;2023-02-15T10:41:32;17.13;;;15.05;;
51148;SDS011;37210;50.058;8.688;2023-02-15T10:44:22;19.58;;;16.88;;
51148;SDS011;37210;50.058;8.688;2023-02-15T10:47:11;22.95;;;18.08;;
51148;SDS011;37210;50.058;8.688;2023-02-15T10:50:16;27.92;;;20.73;;
51148;SDS011;37210;50.058;8.688;2023-02-15T10:53:08;26.98;;;20.98;;
51148;SDS011;37210;50.058;8.688;2023-02-15T10:56:03;25.65;;;20.42;;
51148;SDS011;37210;50.058;8.688;2023-02-15T10:58:51;24.35;;;19.38;;
51148;SDS011;37210;50.058;8.688;2023-02-15T11:01:38;24.08;;;18.05;;
51148;SDS011;37210;50.058;8.688;2023-02-15T11:07:32;22.60;;;19.13;;
51148;SDS011;37210;50.058;8.688;2023-02-15T11:10:14;28.52;;;21.05;;
51148;SDS011;37210;50.058;8.688;2023-02-15T11:15:34;26.55;;;21.38;;
51148;SDS011;37210;50.058;8.688;2023-02-15T11:18:08;28.58;;;21.67;;
51148;SDS011;37210;50.058;8.688;2023-02-15T11:20:45;27.08;;;20.50;;
51148;SDS011;37210;50.058;8.688;2023-02-15T11:23:24;26.83;;;21.55;;
51148;SDS011;37210;50.058;8.688;2023-02-15T11:25:57;25.38;;;20.02;;
51148;SDS011;37210;50.058;8.688;2023-02-15T11:28:30;25.30;;;19.92;;
51148;SDS011;37210;50.058;8.688;2023-02-15T11:31:11;25.42;;;21.17;;
51148;SDS011;37210;50.058;8.688;2023-02-15T11:33:46;23.88;;;20.33;;
51148;SDS011;37210;50.058;8.688;2023-02-15T11:36:21;28.30;;;20.87;;
51148;SDS011;37210;50.058;8.688;2023-02-15T11:38:56;28.02;;;21.13;;
51148;SDS011;37210;50.058;8.688;2023-02-15T11:41:37;29.90;;;21.45;;
51148;SDS011;37210;50.058;8.688;2023-02-15T11:44:11;25.93;;;21.20;;
51148;SDS011;37210;50.058;8.688;2023-02-15T11:46:47;27.90;;;20.83;;
51148;SDS011;37210;50.058;8.688;2023-02-15T11:49:22;29.65;;;22.65;;
51148;SDS011;37210;50.058;8.688;2023-02-15T11:51:58;30.92;;;22.65;;
51148;SDS011;37210;50.058;8.688;2023-02-15T11:54:31;29.95;;;22.65;;
51148;SDS011;37210;50.058;8.688;2023-02-15T11:57:10;32.03;;;22.75;;
51148;SDS011;37210;50.058;8.688;2023-02-15T11:59:44;30.17;;;23.27;;
51148;SDS011;37210;50.058;8.688;2023-02-15T12:02:22;32.35;;;23.65;;
51148;SDS011;37210;50.058;8.688;2023-02-15T12:04:56;29.10;;;21.65;;
51148;SDS011;37210;50.058;8.688;2023-02-15T12:07:30;30.95;;;23.20;;
51148;SDS011;37210;50.058;8.688;2023-02-15T12:10:05;32.47;;;23.40;;
51148;SDS011;37210;50.058;8.688;2023-02-15T12:12:48;29.15;;;24.02;;
51148;SDS011;37210;50.058;8.688;2023-02-15T12:15:39;29.90;;;24.20;;
51148;SDS011;37210;50.058;8.688;2023-02-15T12:18:19;32.27;;;23.93;;
51148;SDS011;37210;50.058;8.688;2023-02-15T12:21:14;33.15;;;25.10;;
51148;SDS011;37210;50.058;8.688;2023-02-15T12:23:51;34.40;;;25.67;;
51148;SDS011;37210;50.058;8.688;2023-02-15T12:26:27;36.05;;;25.98;;
51148;SDS011;37210;50.058;8.688;2023-02-15T12:29:12;32.63;;;26.50;;
51148;SDS011;37210;50.058;8.688;2023-02-15T12:31:44;35.40;;;26.17;;
51148;SDS011;37210;50.058;8.688;2023-02-15T12:34:18;36.70;;;25.80;;
51148;SDS011;37210;50.058;8.688;2023-02-15T12:36:53;37.35;;;26.80;;
51148;SDS011;37210;50.058;8.688;2023-02-15T12:39:25;40.38;;;28.00;;
51148;SDS011;37210;50.058;8.688;2023-02-15T12:41:59;40.55;;;28.45;;
51148;SDS011;37210;50.058;8.688;2023-02-15T12:44:30;34.70;;;26.05;;
51148;SDS011;37210;50.058;8.688;2023-02-15T12:47:03;36.80;;;26.13;;
51148;SDS011;37210;50.058;8.688;2023-02-15T12:49:34;35.85;;;27.40;;
51148;SDS011;37210;50.058;8.688;2023-02-15T12:52:22;34.47;;;28.00;;
51148;SDS011;37210;50.058;8.688;2023-02-15T12:54:52;37.25;;;27.73;;
51148;SDS011;37210;50.058;8.688;2023-02-15T12:57:26;36.08;;;28.08;;
51148;SDS011;37210;50.058;8.688;2023-02-15T12:59:56;36.57;;;27.50;;
51148;SDS011;37210;50.058;8.688;2023-02-15T13:02:41;37.08;;;28.45;;
51148;SDS011;37210;50.058;8.688;2023-02-15T13:05:18;39.33;;;28.85;;
51148;SDS011;37210;50.058;8.688;2023-02-15T13:07:53;37.30;;;29.13;;
51148;SDS011;37210;50.058;8.688;2023-02-15T13:10:25;40.33;;;29.65;;
51148;SDS011;37210;50.058;8.688;2023-02-15T13:12:59;45.78;;;30.13;;
51148;SDS011;37210;50.058;8.688;2023-02-15T13:15:30;38.75;;;29.13;;
51148;SDS011;37210;50.058;8.688;2023-02-15T13:18:04;40.10;;;28.67;;
51148;SDS011;37210;50.058;8.688;2023-02-15T13:20:39;40.10;;;29.23;;
51148;SDS011;37210;50.058;8.688;2023-02-15T13:23:15;39.97;;;29.00;;
51148;SDS011;37210;50.058;8.688;2023-02-15T13:25:54;42.20;;;29.20;;
51148;SDS011;37210;50.058;8.688;2023-02-15T13:28:38;40.53;;;30.13;;
51148;SDS011;37210;50.058;8.688;2023-02-15T13:31:18;43.10;;;30.17;;
51148;SDS011;37210;50.058;8.688;2023-02-15T13:33:50;40.40;;;29.13;;
51148;SDS011;37210;50.058;8.688;2023-02-15T13:36:26;37.53;;;29.65;;
51148;SDS011;37210;50.058;8.688;2023-02-15T13:39:12;42.70;;;30.52;;
51148;SDS011;37210;50.058;8.688;2023-02-15T13:41:56;37.83;;;29.83;;
51148;SDS011;37210;50.058;8.688;2023-02-15T13:44:39;42.88;;;30.95;;
51148;SDS011;37210;50.058;8.688;2023-02-15T13:47:36;39.03;;;30.02;;
51148;SDS011;37210;50.058;8.688;2023-02-15T13:50:25;37.65;;;28.70;;
51148;SDS011;37210;50.058;8.688;2023-02-15T13:53:27;41.95;;;28.20;;
51148;SDS011;37210;50.058;8.688;2023-02-15T13:56:13;37.42;;;28.88;;
51148;SDS011;37210;50.058;8.688;2023-02-15T13:59:01;40.90;;;28.63;;
51148;SDS011;37210;50.058;8.688;2023-02-15T14:02:04;40.15;;;30.13;;
51148;SDS011;37210;50.058;8.688;2023-02-15T14:05:15;38.88;;;28.65;;
51148;SDS011;37210;50.058;8.688;2023-02-15T14:08:11;39.58;;;29.38;;
51148;SDS011;37210;50.058;8.688;2023-02-15T14:10:51;35.80;;;27.88;;
51148;SDS011;37210;50.058;8.688;2023-02-15T14:13:38;35.90;;;28.38;;
51148;SDS011;37210;50.058;8.688;2023-02-15T14:16:52;40.22;;;27.98;;
51148;SDS011;37210;50.058;8.688;2023-02-15T14:19:31;38.70;;;29.10;;
51148;SDS011;37210;50.058;8.688;2023-02-15T14:22:10;35.95;;;29.25;;
51148;SDS011;37210;50.058;8.688;2023-02-15T14:24:54;40.75;;;28.88;;
51148;SDS011;37210;50.058;8.688;2023-02-15T14:27:41;38.08;;;28.83;;
51148;SDS011;37210;50.058;8.688;2023-02-15T14:30:21;39.50;;;31.13;;
51148;SDS011;37210;50.058;8.688;2023-02-15T14:33:26;38.05;;;29.73;;
51148;SDS011;37210;50.058;8.688;2023-02-15T14:36:04;41.53;;;29.13;;
51148;SDS011;37210;50.058;8.688;2023-02-15T14:38:47;39.50;;;28.17;;
51148;SDS011;37210;50.058;8.688;2023-02-15T14:41:42;37.67;;;28.58;;
51148;SDS011;37210;50.058;8.688;2023-02-15T14:44:18;37.90;;;28.58;;
51148;SDS011;37210;50.058;8.688;2023-02-15T14:47:02;37.13;;;29.80;;
51148;SDS011;37210;50.058;8.688;2023-02-15T14:49:42;43.65;;;30.25;;
51148;SDS011;37210;50.058;8.688;2023-02-15T14:52:11;39.17;;;29.75;;
51148;SDS011;37210;50.058;8.688;2023-02-15T14:54:56;38.17;;;28.70;;
51148;SDS011;37210;50.058;8.688;2023-02-15T14:57:27;38.10;;;30.35;;
51148;SDS011;37210;50.058;8.688;2023-02-15T14:59:58;41.55;;;30.50;;
51148;SDS011;37210;50.058;8.688;2023-02-15T15:02:43;41.58;;;29.95;;
51148;SDS011;37210;50.058;8.688;2023-02-15T15:05:21;37.05;;;27.95;;
51148;SDS011;37210;50.058;8.688;2023-02-15T15:07:59;39.13;;;29.50;;
51148;SDS011;37210;50.058;8.688;2023-02-15T15:10:38;40.97;;;30.23;;
51148;SDS011;37210;50.058;8.688;2023-02-15T15:22:40;38.03;;;30.67;;
51148;SDS011;37210;50.058;8.688;2023-02-15T15:25:40;46.45;;;31.05;;
51148;SDS011;37210;50.058;8.688;2023-02-15T15:31:22;37.35;;;29.45;;
51148;SDS011;37210;50.058;8.688;2023-02-15T15:37:26;41.70;;;30.23;;
51148;SDS011;37210;50.058;8.688;2023-02-15T15:43:58;38.95;;;29.02;;
51148;SDS011;37210;50.058;8.688;2023-02-15T15:47:00;42.22;;;31.63;;
51148;SDS011;37210;50.058;8.688;2023-02-15T15:49:47;40.95;;;29.45;;
51148;SDS011;37210;50.058;8.688;2023-02-15T15:52:15;38.83;;;29.20;;